Time;durP1;ratioP1;P1;durP2;ratioP2;P2;SDS_P1;SDS_P2;PMS_P1;PMS_P2;Temp;Humidity;BMP_temperature;BMP_pressure;BME280_temperature;BME280_humidity;BME280_pressure;Samples;Min_cycle;Max_cycle;Signal;HPM_P1;HPM_P2
2022/09/06 00:02:00;;;;;;;6.80;2.75;;;23.50;52.80;;;;;;9183301;19;20029;-71
2022/09/06 00:05:10;;;;;;;8.77;2.70;;;23.40;52.90;;;;;;9184335;19;20014;-72
2022/09/06 00:08:15;;;;;;;5.28;2.80;;;23.40;53.00;;;;;;9184161;19;20483;-72
2022/09/06 00:11:21;;;;;;;5.18;2.92;;;23.40;53.00;;;;;;9184375;19;20007;-72
2022/09/06 00:14:26;;;;;;;8.27;2.88;;;23.40;53.10;;;;;;9183772;19;20018;-72
2022/09/06 00:17:31;;;;;;;7.13;3.05;;;23.40;53.20;;;;;;9181992;19;20380;-70
2022/09/06 00:20:40;;;;;;;8.40;2.70;;;23.40;53.30;;;;;;9181835;19;20010;-69
2022/09/06 00:23:45;;;;;;;5.82;3.00;;;23.30;53.30;;;;;;9183559;19;20447;-72
2022/09/06 00:26:50;;;;;;;7.30;3.22;;;23.30;53.30;;;;;;9181260;19;20467;-71
2022/09/06 00:29:55;;;;;;;6.55;2.97;;;23.30;53.40;;;;;;9180316;19;20058;-69
2022/09/06 00:33:00;;;;;;;4.65;3.22;;;23.30;53.50;;;;;;9180586;19;20030;-71
2022/09/06 00:36:08;;;;;;;5.53;3.20;;;23.20;53.50;;;;;;9178906;19;20018;-72
2022/09/06 00:39:13;;;;;;;3.47;2.65;;;23.20;53.60;;;;;;9180695;19;20014;-72
2022/09/06 00:42:18;;;;;;;8.10;3.70;;;23.20;53.60;;;;;;9181657;19;20011;-72
2022/09/06 00:45:24;;;;;;;6.05;3.05;;;23.20;53.70;;;;;;9182465;19;20010;-70
2022/09/06 00:48:29;;;;;;;9.32;3.40;;;23.20;53.80;;;;;;9181970;19;20022;-72
2022/09/06 00:51:38;;;;;;;8.65;3.20;;;23.20;53.80;;;;;;9181805;19;20003;-72
2022/09/06 00:54:44;;;;;;;8.13;3.42;;;23.20;53.90;;;;;;9180089;19;20038;-72
2022/09/06 00:57:50;;;;;;;5.05;2.80;;;23.20;53.90;;;;;;9179027;19;20018;-72
2022/09/06 01:00:56;;;;;;;4.40;3.10;;;23.10;54.00;;;;;;9177508;19;20396;-71
2022/09/06 01:04:01;;;;;;;6.63;3.33;;;23.10;54.00;;;;;;9180289;19;20033;-70
2022/09/06 01:07:17;;;;;;;4.43;2.97;;;23.10;54.10;;;;;;9180642;19;20006;-73
2022/09/06 01:10:38;;;;;;;3.95;2.75;;;23.10;54.20;;;;;;9178182;19;20030;-72
2022/09/06 01:13:56;;;;;;;8.73;3.13;;;23.00;54.30;;;;;;9180538;19;20006;-71
2022/09/06 01:17:09;;;;;;;7.65;3.30;;;23.00;54.40;;;;;;9181077;19;20352;-72
2022/09/06 01:20:52;;;;;;;8.55;3.15;;;23.00;54.40;;;;;;9179363;19;20048;-72
2022/09/06 01:24:27;;;;;;;5.07;3.33;;;22.90;54.50;;;;;;9178764;19;20463;-72
2022/09/06 01:28:03;;;;;;;4.68;3.30;;;22.90;54.50;;;;;;9178940;19;20021;-69
2022/09/06 01:31:19;;;;;;;3.40;2.85;;;22.90;54.60;;;;;;9176820;19;20019;-70
2022/09/06 01:34:30;;;;;;;9.27;3.10;;;22.90;54.60;;;;;;9180660;19;20370;-71
2022/09/06 01:37:35;;;;;;;7.38;3.03;;;22.80;54.60;;;;;;9175919;19;20019;-72
2022/09/06 01:40:40;;;;;;;6.55;3.13;;;22.90;54.80;;;;;;9178923;19;20015;-72
2022/09/06 01:43:52;;;;;;;12.30;3.20;;;22.80;54.80;;;;;;9180441;19;20022;-71
2022/09/06 01:47:10;;;;;;;9.02;3.05;;;22.80;54.90;;;;;;9179809;19;20049;-72
2022/09/06 01:50:36;;;;;;;3.72;2.90;;;22.80;55.00;;;;;;9180311;19;20023;-70
2022/09/06 01:53:54;;;;;;;7.72;3.45;;;22.70;55.10;;;;;;9179742;19;20025;-72
2022/09/06 01:57:12;;;;;;;6.53;3.50;;;22.70;55.10;;;;;;9178732;19;20387;-72
2022/09/06 02:00:22;;;;;;;6.88;3.75;;;22.70;55.20;;;;;;9178044;19;20022;-72
2022/09/06 02:03:33;;;;;;;5.07;4.10;;;22.70;55.20;;;;;;9179007;19;20018;-71
2022/09/06 02:06:43;;;;;;;5.88;3.92;;;22.60;55.30;;;;;;9178946;19;20019;-71
2022/09/06 02:09:53;;;;;;;7.75;3.90;;;22.60;55.40;;;;;;9179445;19;20014;-70
2022/09/06 02:13:03;;;;;;;7.40;4.25;;;22.60;55.40;;;;;;9178846;19;20010;-69
2022/09/06 02:16:14;;;;;;;8.30;3.72;;;22.60;55.50;;;;;;9178753;19;20018;-71
2022/09/06 02:19:25;;;;;;;11.43;4.15;;;22.60;55.60;;;;;;9176002;19;20029;-71
2022/09/06 02:22:34;;;;;;;5.70;4.40;;;22.60;55.70;;;;;;9183876;19;20026;-72
2022/09/06 02:25:43;;;;;;;8.55;4.40;;;22.60;55.70;;;;;;9187820;19;20034;-71
2022/09/06 02:28:48;;;;;;;5.82;3.70;;;22.60;55.80;;;;;;9188146;19;20011;-70
2022/09/06 02:31:59;;;;;;;7.15;4.72;;;22.50;55.80;;;;;;9187514;19;20021;-71
2022/09/06 02:35:09;;;;;;;6.28;4.63;;;22.50;56.00;;;;;;9186842;19;20018;-71
2022/09/06 02:38:15;;;;;;;11.38;5.82;;;22.50;56.10;;;;;;9182980;19;20007;-72
2022/09/06 02:41:23;;;;;;;16.30;5.45;;;22.40;56.20;;;;;;9184835;19;20010;-71
2022/09/06 02:44:28;;;;;;;11.25;5.30;;;22.40;56.30;;;;;;9186290;19;20010;-71
2022/09/06 02:47:36;;;;;;;7.88;5.80;;;22.40;56.50;;;;;;9187154;19;20015;-72
2022/09/06 02:50:41;;;;;;;7.55;5.55;;;22.40;56.60;;;;;;9186283;19;20262;-73
2022/09/06 02:53:46;;;;;;;9.75;5.45;;;22.40;56.70;;;;;;9184550;19;20402;-72
2022/09/06 02:56:51;;;;;;;10.85;5.90;;;22.40;56.90;;;;;;9186219;19;20014;-72
2022/09/06 02:59:56;;;;;;;12.25;5.65;;;22.40;57.00;;;;;;9185208;19;20061;-72
2022/09/06 03:03:04;;;;;;;6.88;5.25;;;22.30;57.10;;;;;;9183993;19;20480;-71
2022/09/06 03:06:09;;;;;;;9.48;5.30;;;22.30;57.20;;;;;;9185729;19;20034;-72
2022/09/06 03:09:14;;;;;;;10.68;6.15;;;22.30;57.30;;;;;;9184049;19;20014;-71
2022/09/06 03:12:19;;;;;;;11.10;5.35;;;22.30;57.40;;;;;;9185673;19;20019;-72
2022/09/06 03:15:25;;;;;;;8.90;5.47;;;22.20;57.40;;;;;;9185662;19;20014;-72
2022/09/06 03:18:33;;;;;;;9.57;5.80;;;22.20;57.50;;;;;;9186268;19;20466;-72
2022/09/06 03:21:38;;;;;;;12.73;5.63;;;22.20;57.60;;;;;;9184641;19;20407;-71
2022/09/06 03:24:43;;;;;;;9.15;6.25;;;22.20;57.70;;;;;;9186160;19;20010;-70
2022/09/06 03:27:48;;;;;;;8.88;5.75;;;22.10;57.70;;;;;;9184262;19;20015;-71
2022/09/06 03:30:54;;;;;;;10.50;6.60;;;22.10;57.80;;;;;;9185160;19;20391;-70
2022/09/06 03:34:01;;;;;;;13.95;6.30;;;22.00;58.40;;;;;;9181524;19;20031;-71
2022/09/06 03:37:07;;;;;;;10.63;5.88;;;22.00;58.00;;;;;;9181696;19;20021;-72
2022/09/06 03:40:13;;;;;;;8.13;5.97;;;22.00;58.00;;;;;;9183289;19;20357;-71
2022/09/06 03:43:19;;;;;;;9.55;6.00;;;22.00;58.10;;;;;;9184011;19;20484;-72
2022/09/06 03:46:24;;;;;;;12.75;6.25;;;22.00;58.10;;;;;;9184308;19;20053;-70
2022/09/06 03:49:32;;;;;;;9.40;6.38;;;21.90;58.20;;;;;;9183798;19;20018;-71
2022/09/06 03:52:37;;;;;;;12.60;6.43;;;21.90;58.30;;;;;;9184570;19;20010;-71
2022/09/06 03:55:45;;;;;;;11.52;6.32;;;21.90;58.40;;;;;;9184830;19;20014;-72
2022/09/06 03:58:50;;;;;;;11.00;5.85;;;21.90;58.80;;;;;;9184581;19;20044;-72
2022/09/06 04:01:55;;;;;;;9.23;6.03;;;21.80;58.40;;;;;;9181316;19;20011;-71
2022/09/06 04:05:03;;;;;;;8.68;6.68;;;21.80;58.50;;;;;;9181550;19;20431;-71
2022/09/06 04:08:08;;;;;;;12.85;6.85;;;21.80;58.60;;;;;;9183658;19;20460;-69
2022/09/06 04:11:13;;;;;;;15.60;6.90;;;21.80;58.70;;;;;;9184274;19;20029;-71
2022/09/06 04:14:20;;;;;;;9.60;6.35;;;21.70;58.70;;;;;;9183205;19;20014;-72
2022/09/06 04:17:26;;;;;;;11.70;6.20;;;21.70;58.70;;;;;;9183624;19;20010;-72
2022/09/06 04:20:33;;;;;;;12.68;6.80;;;21.70;58.80;;;;;;9182622;19;20018;-71
2022/09/06 04:23:38;;;;;;;14.32;6.72;;;21.60;58.90;;;;;;9182413;19;20014;-72
2022/09/06 04:26:43;;;;;;;10.02;6.65;;;21.60;58.80;;;;;;9182842;19;20363;-70
2022/09/06 04:29:48;;;;;;;14.95;7.93;;;21.60;58.90;;;;;;9182537;19;20011;-71
2022/09/06 04:32:53;;;;;;;12.40;8.00;;;21.60;59.00;;;;;;9182048;19;20030;-71
2022/09/06 04:36:03;;;;;;;13.23;7.45;;;21.60;59.00;;;;;;9178153;19;20018;-67
2022/09/06 04:39:08;;;;;;;14.38;6.57;;;21.50;59.10;;;;;;9181695;19;20452;-71
2022/09/06 04:42:13;;;;;;;25.42;7.80;;;21.60;59.20;;;;;;9180198;19;20021;-71
2022/09/06 04:45:18;;;;;;;19.50;8.45;;;21.50;59.30;;;;;;9177680;19;20022;-69
2022/09/06 04:48:23;;;;;;;13.07;7.60;;;21.50;59.50;;;;;;9181184;19;20428;-70
2022/09/06 04:51:30;;;;;;;15.25;8.38;;;21.40;59.70;;;;;;9181119;19;20480;-69
2022/09/06 04:54:35;;;;;;;18.65;8.55;;;21.40;60.00;;;;;;9181377;19;20099;-70
2022/09/06 04:57:40;;;;;;;12.73;8.20;;;21.40;60.20;;;;;;9181191;19;20035;-70
2022/09/06 05:00:51;;;;;;;13.40;8.10;;;21.30;60.30;;;;;;9178293;19;20474;-70
2022/09/06 05:03:56;;;;;;;17.48;8.57;;;21.30;60.50;;;;;;9180383;19;20018;-70
2022/09/06 05:07:05;;;;;;;13.70;8.25;;;21.30;60.80;;;;;;9180797;19;20359;-69
2022/09/06 05:10:10;;;;;;;13.13;8.32;;;21.20;61.00;;;;;;9180579;19;20026;-68
2022/09/06 05:13:15;;;;;;;12.50;8.02;;;21.10;61.00;;;;;;9180906;19;20341;-69
2022/09/06 05:16:20;;;;;;;13.13;8.40;;;21.10;61.20;;;;;;9178962;19;20431;-70
2022/09/06 05:19:25;;;;;;;14.70;7.78;;;21.10;61.40;;;;;;9180589;19;20015;-70
2022/09/06 05:22:33;;;;;;;15.38;7.80;;;21.10;61.50;;;;;;9177968;19;20515;-69
2022/09/06 05:25:38;;;;;;;10.85;7.68;;;21.00;61.70;;;;;;9179210;19;20034;-69
2022/09/06 05:28:43;;;;;;;13.02;8.15;;;21.00;61.90;;;;;;9180824;19;20018;-70
2022/09/06 05:31:48;;;;;;;12.43;8.50;;;20.90;62.00;;;;;;9180348;19;20022;-68
2022/09/06 05:34:53;;;;;;;17.85;7.72;;;20.90;62.20;;;;;;9179943;19;20019;-68
2022/09/06 05:38:00;;;;;;;10.73;8.50;;;20.80;62.40;;;;;;9175949;19;20026;-69
2022/09/06 05:41:06;;;;;;;14.45;8.52;;;20.80;62.60;;;;;;9177369;19;20022;-69
2022/09/06 05:44:11;;;;;;;15.73;8.77;;;20.80;62.80;;;;;;9178957;19;20018;-68
2022/09/06 05:47:15;;;;;;;15.32;8.77;;;20.70;62.80;;;;;;9177830;19;20014;-71
2022/09/06 05:50:20;;;;;;;19.30;8.88;;;20.70;63.00;;;;;;9178113;19;20014;-73
2022/09/06 05:53:28;;;;;;;16.00;8.88;;;20.60;63.10;;;;;;9178502;19;20025;-71
2022/09/06 05:56:33;;;;;;;16.67;8.27;;;20.50;63.40;;;;;;9179267;19;20038;-71
2022/09/06 05:59:38;;;;;;;16.13;8.57;;;20.50;63.40;;;;;;9188182;19;20042;-71
2022/09/06 06:02:45;;;;;;;13.02;8.43;;;20.40;63.60;;;;;;9185354;19;20106;-71
2022/09/06 06:05:50;;;;;;;17.80;9.32;;;20.40;63.80;;;;;;9182570;19;20090;-71
2022/09/06 06:08:58;;;;;;;17.95;8.80;;;20.30;63.90;;;;;;9181306;19;20030;-70
2022/09/06 06:12:03;;;;;;;17.48;9.00;;;20.30;64.30;;;;;;9178588;19;20048;-67
2022/09/06 06:15:09;;;;;;;14.45;9.77;;;20.30;64.40;;;;;;9174405;19;20018;-67
2022/09/06 06:18:14;;;;;;;13.40;9.23;;;20.30;64.50;;;;;;9176502;19;20837;-67
2022/09/06 06:21:21;;;;;;;16.50;9.77;;;20.30;64.60;;;;;;9175812;19;20018;-68
2022/09/06 06:24:29;;;;;;;13.68;8.85;;;20.30;65.00;;;;;;9176102;19;20049;-67
2022/09/06 06:27:35;;;;;;;12.02;8.95;;;20.30;65.10;;;;;;9175465;19;20010;-66
2022/09/06 06:30:40;;;;;;;18.45;9.55;;;20.30;65.10;;;;;;9173691;19;20025;-67
2022/09/06 06:33:45;;;;;;;13.85;9.60;;;20.30;65.30;;;;;;9177245;19;20074;-66
2022/09/06 06:36:50;;;;;;;15.20;9.88;;;20.30;65.50;;;;;;9175182;19;20048;-67
2022/09/06 06:39:58;;;;;;;13.98;9.52;;;20.30;65.60;;;;;;9180218;19;20014;-67
2022/09/06 06:43:03;;;;;;;18.05;9.85;;;20.30;65.80;;;;;;9180247;19;20341;-66
2022/09/06 06:46:10;;;;;;;14.85;9.93;;;20.30;65.80;;;;;;9175582;19;20018;-67
2022/09/06 06:49:15;;;;;;;15.05;10.60;;;20.40;66.00;;;;;;9179865;19;20022;-67
2022/09/06 06:52:20;;;;;;;12.85;10.27;;;20.40;66.00;;;;;;9182051;19;20018;-65
2022/09/06 06:55:27;;;;;;;14.45;10.48;;;20.40;66.10;;;;;;9184834;19;20459;-69
2022/09/06 06:58:32;;;;;;;13.82;10.88;;;20.40;66.30;;;;;;9186112;19;20011;-68
2022/09/06 07:01:38;;;;;;;16.42;11.27;;;20.40;66.30;;;;;;9184446;19;20018;-66
2022/09/06 07:04:44;;;;;;;16.80;11.45;;;20.40;66.50;;;;;;9184189;19;20644;-68
2022/09/06 07:07:49;;;;;;;18.33;11.38;;;20.50;66.70;;;;;;9182214;19;20006;-67
2022/09/06 07:10:56;;;;;;;15.93;12.40;;;20.50;66.80;;;;;;9184727;19;20018;-69
2022/09/06 07:14:01;;;;;;;17.58;11.18;;;20.60;67.10;;;;;;9185293;19;20472;-69
2022/09/06 07:17:06;;;;;;;22.45;11.45;;;20.70;67.10;;;;;;9183186;19;20026;-69
2022/09/06 07:20:13;;;;;;;35.47;12.10;;;20.70;67.20;;;;;;9183907;19;20023;-68
2022/09/06 07:23:19;;;;;;;19.20;11.98;;;20.90;67.40;;;;;;9183590;19;20099;-69
2022/09/06 07:26:47;;;;;;;15.02;10.43;;;20.90;67.30;;;;;;9183827;19;20038;-68
2022/09/06 07:30:13;;;;;;;13.68;9.65;;;21.10;67.40;;;;;;9183960;19;20056;-69
2022/09/06 07:33:18;;;;;;;16.40;10.50;;;21.20;67.30;;;;;;9181671;19;20018;-69
2022/09/06 07:36:23;;;;;;;14.70;9.40;;;21.20;67.20;;;;;;9179489;19;20089;-69
2022/09/06 07:39:28;;;;;;;13.77;10.00;;;21.30;67.30;;;;;;9184177;19;20018;-69
2022/09/06 07:42:36;;;;;;;14.48;10.10;;;21.40;67.30;;;;;;9182081;19;20015;-69
2022/09/06 07:45:40;;;;;;;15.35;10.73;;;21.50;67.40;;;;;;9179915;19;20019;-68
2022/09/06 07:48:48;;;;;;;15.60;10.40;;;21.50;67.40;;;;;;9177060;19;20720;-69
2022/09/06 07:51:53;;;;;;;11.80;9.52;;;21.60;67.50;;;;;;9178999;19;20019;-68
2022/09/06 07:54:58;;;;;;;16.75;10.13;;;21.60;67.60;;;;;;9175929;19;20019;-73
2022/09/06 07:58:05;;;;;;;16.15;10.45;;;21.70;67.60;;;;;;9177915;19;20022;-72
2022/09/06 08:01:27;;;;;;;12.90;9.82;;;21.80;67.70;;;;;;9180794;19;20018;-70
2022/09/06 08:04:32;;;;;;;13.68;9.98;;;21.90;68.10;;;;;;9177762;19;20048;-72
2022/09/06 08:07:37;;;;;;;13.23;8.60;;;21.90;67.70;;;;;;9182059;19;20006;-72
2022/09/06 08:10:43;;;;;;;12.48;8.30;;;22.00;67.80;;;;;;9178448;19;20014;-69
2022/09/06 08:13:53;;;;;;;15.35;8.52;;;22.10;67.70;;;;;;9177785;19;20021;-69
2022/09/06 08:16:58;;;;;;;10.88;7.93;;;22.20;67.90;;;;;;9179868;19;20030;-69
2022/09/06 08:20:04;;;;;;;10.25;7.82;;;22.30;67.80;;;;;;9180189;19;20019;-69
2022/09/06 08:23:11;;;;;;;12.90;9.63;;;22.40;67.90;;;;;;9180201;19;20014;-69
2022/09/06 08:26:16;;;;;;;12.95;9.10;;;22.60;67.90;;;;;;9180098;19;20053;-66
2022/09/06 08:29:24;;;;;;;15.48;9.10;;;22.70;67.80;;;;;;9177858;19;20021;-68
2022/09/06 08:32:29;;;;;;;9.63;8.20;;;22.90;67.80;;;;;;9175554;19;20033;-69
2022/09/06 08:35:34;;;;;;;16.88;9.13;;;23.10;67.50;;;;;;9180221;19;20021;-69
2022/09/06 08:38:39;;;;;;;11.85;8.73;;;23.30;67.50;;;;;;9176283;19;20003;-69
2022/09/06 08:41:50;;;;;;;14.25;7.90;;;23.40;67.30;;;;;;9175718;19;20019;-69
2022/09/06 08:45:01;;;;;;;13.43;7.47;;;23.60;68.00;;;;;;9169630;19;20590;-69
2022/09/06 08:48:06;;;;;;;16.83;7.28;;;23.90;67.10;;;;;;9168786;19;20014;-68
2022/09/06 08:51:36;;;;;;;9.60;7.38;;;24.10;66.80;;;;;;9176039;19;20018;-65
2022/09/06 08:54:49;;;;;;;10.35;7.95;;;24.30;66.70;;;;;;9175396;19;20368;-67
2022/09/06 08:58:07;;;;;;;8.68;5.75;;;24.60;66.30;;;;;;9176071;19;20098;-67
2022/09/06 09:01:21;;;;;;;9.30;6.82;;;24.80;65.90;;;;;;9176264;19;20293;-68
2022/09/06 09:04:30;;;;;;;9.73;6.50;;;25.10;65.60;;;;;;9175609;19;20229;-70
2022/09/06 09:07:43;;;;;;;9.30;6.70;;;25.30;65.40;;;;;;9175808;19;20010;-68
2022/09/06 09:10:51;;;;;;;10.15;5.78;;;25.50;65.10;;;;;;9175575;19;20479;-70
2022/09/06 09:14:00;;;;;;;11.07;5.88;;;25.70;64.80;;;;;;9175439;19;20022;-69
2022/09/06 09:17:13;;;;;;;6.57;4.88;;;25.90;64.50;;;;;;9175096;19;20021;-66
2022/09/06 09:20:19;;;;;;;8.80;5.43;;;26.20;64.10;;;;;;9173907;19;20010;-66
2022/09/06 09:23:24;;;;;;;8.50;5.40;;;26.40;63.90;;;;;;9176945;19;20016;-69
2022/09/06 09:26:35;;;;;;;8.32;4.40;;;26.60;63.60;;;;;;9176541;19;20018;-68
2022/09/06 09:29:59;;;;;;;6.90;4.97;;;26.80;63.80;;;;;;9175125;19;20042;-67
2022/09/06 09:33:30;;;;;;;11.20;5.03;;;27.10;62.80;;;;;;9191319;19;20022;-67
2022/09/06 09:36:35;;;;;;;7.53;3.97;;;27.30;62.50;;;;;;9188180;19;20015;-67
2022/09/06 09:39:41;;;;;;;7.50;4.78;;;27.50;62.30;;;;;;9191777;19;20046;-68
2022/09/06 09:42:46;;;;;;;6.75;4.68;;;27.70;61.90;;;;;;9189162;19;20363;-70
2022/09/06 09:46:14;;;;;;;5.65;4.60;;;27.90;61.60;;;;;;9192884;19;20467;-69
2022/09/06 09:49:32;;;;;;;5.75;4.03;;;28.00;61.00;;;;;;9191493;19;20014;-71
2022/09/06 09:52:45;;;;;;;6.60;4.38;;;28.20;60.70;;;;;;9192559;19;20018;-72
2022/09/06 09:55:55;;;;;;;5.10;4.22;;;28.40;60.60;;;;;;9191611;19;20026;-70
2022/09/06 09:59:02;;;;;;;11.07;4.50;;;28.50;60.30;;;;;;9190615;19;20357;-72
2022/09/06 10:02:25;;;;;;;10.82;4.25;;;28.70;60.00;;;;;;9192166;19;20649;-71
2022/09/06 10:05:32;;;;;;;10.63;5.03;;;28.90;59.50;;;;;;9188746;19;20134;-71
2022/09/06 10:08:42;;;;;;;9.00;3.78;;;29.10;59.40;;;;;;9191352;19;20026;-70
2022/09/06 10:11:57;;;;;;;4.55;3.55;;;29.20;59.00;;;;;;9190426;19;20022;-70
2022/09/06 10:15:03;;;;;;;13.95;3.67;;;29.40;58.70;;;;;;9189382;19;20022;-71
2022/09/06 10:18:19;;;;;;;4.43;3.25;;;29.50;58.50;;;;;;9194766;19;20010;-70
2022/09/06 10:21:28;;;;;;;6.90;3.30;;;29.70;58.00;;;;;;9196474;19;20021;-71
2022/09/06 10:24:58;;;;;;;6.50;2.95;;;29.80;57.80;;;;;;9195101;19;20058;-71
2022/09/06 10:28:31;;;;;;;4.55;2.80;;;29.90;57.30;;;;;;9196642;19;20018;-71
2022/09/06 10:31:46;;;;;;;5.03;3.60;;;30.10;57.10;;;;;;9196352;19;20022;-73
2022/09/06 10:35:09;;;;;;;4.95;3.35;;;30.30;57.10;;;;;;9192136;19;20022;-72
2022/09/06 10:38:31;;;;;;;7.28;3.20;;;30.40;56.40;;;;;;9186422;19;20026;-71
2022/09/06 10:41:56;;;;;;;9.90;3.08;;;30.50;56.10;;;;;;9181077;19;20016;-71
2022/09/06 10:45:18;;;;;;;4.95;2.83;;;30.60;55.70;;;;;;9171863;19;20018;-72
2022/09/06 10:48:29;;;;;;;3.03;2.10;;;30.70;55.60;;;;;;9173785;19;20022;-70
2022/09/06 10:51:40;;;;;;;3.22;2.10;;;30.80;55.50;;;;;;9174803;19;20025;-71
2022/09/06 10:54:47;;;;;;;4.75;2.05;;;30.90;55.10;;;;;;9175140;19;20058;-68
2022/09/06 10:57:58;;;;;;;3.90;2.40;;;31.00;54.80;;;;;;9175745;19;20018;-70
2022/09/06 11:01:35;;;;;;;3.50;2.22;;;31.00;54.60;;;;;;9175943;19;20018;-69
2022/09/06 11:04:42;;;;;;;5.10;2.10;;;31.20;54.20;;;;;;9178664;19;20048;-70
2022/09/06 11:08:13;;;;;;;8.38;2.10;;;31.30;54.30;;;;;;9182075;19;20022;-71
2022/09/06 11:11:45;;;;;;;2.67;2.05;;;31.40;54.00;;;;;;9182499;19;20479;-73
2022/09/06 11:14:50;;;;;;;4.55;2.47;;;31.50;53.60;;;;;;9181439;19;20014;-71
2022/09/06 11:18:02;;;;;;;3.00;1.80;;;31.50;53.50;;;;;;9181186;19;20014;-72
2022/09/06 11:21:45;;;;;;;4.63;2.40;;;31.60;53.10;;;;;;9180433;19;20056;-73
2022/09/06 11:25:13;;;;;;;2.42;2.00;;;31.60;52.60;;;;;;9181135;19;20476;-70
2022/09/06 11:28:27;;;;;;;6.55;1.88;;;31.70;52.50;;;;;;9184568;19;20018;-75
2022/09/06 11:31:34;;;;;;;4.88;2.10;;;31.80;52.40;;;;;;9183580;19;20048;-77
2022/09/06 11:35:01;;;;;;;8.05;1.80;;;31.90;52.50;;;;;;9177501;19;20035;-77
2022/09/06 11:38:20;;;;;;;4.25;1.75;;;32.00;52.70;;;;;;9177806;19;20047;-75
2022/09/06 11:41:31;;;;;;;5.30;2.60;;;32.00;51.70;;;;;;9178526;19;20481;-75
2022/09/06 11:44:55;;;;;;;2.70;1.73;;;32.10;51.50;;;;;;9180692;19;20048;-76
2022/09/06 11:48:20;;;;;;;;;;;32.10;51.10;;;;;;9181820;19;20337;-73
2022/09/06 11:51:37;;;;;;;4.60;1.80;;;32.20;51.70;;;;;;9181396;19;20556;-75
2022/09/06 11:54:46;;;;;;;7.47;2.13;;;32.20;51.20;;;;;;9173026;19;20755;-78
2022/09/06 11:57:56;;;;;;;6.15;2.35;;;32.30;51.20;;;;;;9179501;19;20022;-75
2022/09/06 12:01:40;;;;;;;6.07;2.45;;;32.40;50.90;;;;;;9172612;19;20018;-74
2022/09/06 12:05:13;;;;;;;4.55;2.40;;;32.50;50.40;;;;;;9174586;19;20452;-74
2022/09/06 12:08:39;;;;;;;2.90;1.77;;;32.50;50.20;;;;;;9175888;19;20341;-75
2022/09/06 12:11:47;;;;;;;7.72;2.17;;;32.60;50.00;;;;;;9178390;19;20019;-75
2022/09/06 12:14:52;;;;;;;6.47;1.92;;;32.60;50.10;;;;;;9180343;19;20021;-76
2022/09/06 12:17:59;;;;;;;8.10;1.67;;;32.60;50.00;;;;;;9179825;19;20022;-76
2022/09/06 12:21:07;;;;;;;3.83;1.73;;;32.70;49.70;;;;;;9184799;19;20010;-77
2022/09/06 12:24:47;;;;;;;3.17;1.75;;;32.70;49.40;;;;;;9184013;19;20019;-74
2022/09/06 12:27:56;;;;;;;4.75;2.60;;;32.70;49.10;;;;;;9180308;19;20019;-72
2022/09/06 12:31:01;;;;;;;8.35;2.40;;;32.80;49.20;;;;;;9174663;19;20010;-76
2022/09/06 12:34:14;;;;;;;8.13;2.25;;;32.80;49.10;;;;;;9176906;19;20021;-77
2022/09/06 12:37:36;;;;;;;5.60;1.60;;;32.80;48.70;;;;;;9171010;19;20021;-76
2022/09/06 12:40:46;;;;;;;4.55;2.38;;;32.90;48.40;;;;;;9176263;19;20014;-77
2022/09/06 12:43:51;;;;;;;4.03;1.65;;;32.80;48.60;;;;;;9176862;19;20019;-75
2022/09/06 12:46:58;;;;;;;2.72;1.52;;;32.90;48.50;;;;;;9179158;19;20021;-66
2022/09/06 12:50:13;;;;;;;2.75;1.73;;;32.90;48.40;;;;;;9172618;19;20010;-74
2022/09/06 12:53:25;;;;;;;4.80;1.85;;;32.90;48.10;;;;;;9173869;19;20014;-71
2022/09/06 12:56:32;;;;;;;4.28;1.65;;;32.90;48.00;;;;;;9177745;19;20014;-75
2022/09/06 12:59:37;;;;;;;2.50;1.25;;;32.90;47.90;;;;;;9177332;19;20023;-70
2022/09/06 13:02:48;;;;;;;5.80;1.60;;;32.90;47.90;;;;;;9174829;19;20042;-70
2022/09/06 13:05:56;;;;;;;5.18;1.83;;;32.90;47.60;;;;;;9170864;19;20014;-69
2022/09/06 13:09:03;;;;;;;2.47;1.50;;;32.80;47.60;;;;;;9175023;19;20014;-73
2022/09/06 13:12:16;;;;;;;2.03;1.25;;;32.70;47.40;;;;;;9181230;19;20015;-73
2022/09/06 13:15:25;;;;;;;2.03;1.63;;;32.70;47.30;;;;;;9180217;19;20024;-75
2022/09/06 13:18:35;;;;;;;5.75;1.42;;;32.60;47.30;;;;;;9181285;19;20011;-74
2022/09/06 13:21:43;;;;;;;3.72;1.73;;;32.50;47.10;;;;;;9180341;19;20585;-74
2022/09/06 13:24:57;;;;;;;2.47;1.30;;;32.40;47.10;;;;;;9176826;19;20018;-74
2022/09/06 13:28:02;;;;;;;6.95;1.55;;;32.40;47.30;;;;;;9174358;19;20018;-70
2022/09/06 13:31:11;;;;;;;2.53;1.63;;;32.40;47.40;;;;;;9179983;19;20357;-72
2022/09/06 13:34:22;;;;;;;2.67;1.65;;;32.30;47.10;;;;;;9179971;19;20014;-71
2022/09/06 13:37:30;;;;;;;5.88;2.05;;;32.30;47.10;;;;;;9176131;19;20372;-74
2022/09/06 13:40:43;;;;;;;4.15;1.60;;;32.30;47.20;;;;;;9179048;19;20482;-74
2022/09/06 13:44:20;;;;;;;5.00;1.92;;;32.20;46.90;;;;;;9180267;19;20044;-75
2022/09/06 13:47:30;;;;;;;3.75;1.60;;;32.20;46.80;;;;;;9174054;19;20103;-73
2022/09/06 13:50:35;;;;;;;3.35;1.83;;;32.20;46.90;;;;;;9171688;19;20487;-74
2022/09/06 13:53:40;;;;;;;3.80;1.30;;;32.20;46.90;;;;;;9170851;19;20023;-74
2022/09/06 13:56:49;;;;;;;5.45;1.80;;;32.20;46.80;;;;;;9173496;19;20018;-73
2022/09/06 13:59:54;;;;;;;6.10;1.30;;;32.10;46.70;;;;;;9172951;19;20447;-71
2022/09/06 14:03:00;;;;;;;8.48;1.70;;;32.10;46.70;;;;;;9173402;19;20017;-71
2022/09/06 14:06:06;;;;;;;6.75;2.05;;;32.20;46.70;;;;;;9171139;19;20507;-75
2022/09/06 14:09:11;;;;;;;5.03;1.20;;;32.20;47.40;;;;;;9173305;19;20023;-71
2022/09/06 14:12:19;;;;;;;4.18;1.77;;;32.20;46.60;;;;;;9170865;19;20026;-73
2022/09/06 14:15:24;;;;;;;2.35;1.33;;;32.20;46.50;;;;;;9170902;19;20369;-71
2022/09/06 14:18:30;;;;;;;2.35;1.35;;;32.20;46.50;;;;;;9177992;19;20388;-73
2022/09/06 14:21:35;;;;;;;3.45;1.30;;;32.20;46.40;;;;;;9180373;19;20028;-72
2022/09/06 14:24:40;;;;;;;5.30;1.48;;;32.20;46.30;;;;;;9181067;19;20018;-75
2022/09/06 14:27:48;;;;;;;4.75;1.67;;;32.20;46.30;;;;;;9177853;19;20021;-73
2022/09/06 14:30:53;;;;;;;2.88;1.35;;;32.20;46.30;;;;;;9180919;19;20018;-72
2022/09/06 14:33:59;;;;;;;1.83;1.30;;;32.30;46.30;;;;;;9180898;19;20018;-72
2022/09/06 14:37:04;;;;;;;2.42;1.17;;;32.30;46.20;;;;;;9178260;19;20025;-73
2022/09/06 14:40:14;;;;;;;4.40;1.58;;;32.30;46.20;;;;;;9179575;19;20025;-75
2022/09/06 14:43:22;;;;;;;7.22;1.40;;;32.30;46.10;;;;;;9183814;19;20082;-68
2022/09/06 14:46:28;;;;;;;3.30;1.30;;;32.30;45.90;;;;;;9176818;19;20022;-65
2022/09/06 14:49:34;;;;;;;4.05;1.20;;;32.30;46.00;;;;;;9175348;19;20073;-64
2022/09/06 14:52:39;;;;;;;2.70;1.13;;;32.30;45.90;;;;;;9182030;19;20011;-64
2022/09/06 14:55:44;;;;;;;4.00;1.40;;;32.30;45.80;;;;;;9181341;19;20021;-63
2022/09/06 14:58:53;;;;;;;5.10;1.70;;;32.20;45.80;;;;;;9182160;19;20384;-63
2022/09/06 15:01:58;;;;;;;7.43;1.50;;;32.20;46.30;;;;;;9182478;19;20023;-64
2022/09/06 15:05:04;;;;;;;7.68;2.47;;;32.20;45.70;;;;;;9182080;19;20023;-61
2022/09/06 15:08:09;;;;;;;3.75;1.48;;;32.20;45.80;;;;;;9175946;19;20010;-66
2022/09/06 15:11:14;;;;;;;6.60;1.23;;;32.20;45.70;;;;;;9177470;19;20010;-62
2022/09/06 15:14:24;;;;;;;2.33;1.25;;;32.20;45.60;;;;;;9176518;19;20569;-61
2022/09/06 15:17:28;;;;;;;2.53;1.10;;;32.20;45.40;;;;;;9173807;19;20060;-64
2022/09/06 15:20:33;;;;;;;1.27;1.10;;;32.10;45.30;;;;;;9173758;19;20653;-64
2022/09/06 15:23:38;;;;;;;5.70;0.98;;;32.10;45.20;;;;;;9175232;19;21255;-64
2022/09/06 15:26:44;;;;;;;2.75;1.13;;;32.00;45.00;;;;;;9175296;19;20015;-65
2022/09/06 15:29:52;;;;;;;4.15;1.35;;;32.00;45.00;;;;;;9173780;19;20018;-62
2022/09/06 15:32:57;;;;;;;4.28;1.80;;;32.00;45.00;;;;;;9179324;19;20021;-66
2022/09/06 15:36:05;;;;;;;4.93;1.45;;;32.00;45.10;;;;;;9175328;19;20014;-62
2022/09/06 15:39:10;;;;;;;4.78;1.35;;;31.90;45.00;;;;;;9176096;19;20048;-62
2022/09/06 15:42:15;;;;;;;3.80;1.50;;;31.80;44.90;;;;;;9174528;19;20025;-63
2022/09/06 15:45:22;;;;;;;6.25;1.00;;;31.80;45.00;;;;;;9174668;19;20022;-63
2022/09/06 15:48:28;;;;;;;3.35;1.30;;;31.70;45.00;;;;;;9169337;19;20491;-64
2022/09/06 15:51:35;;;;;;;1.98;1.30;;;31.70;44.90;;;;;;9180415;19;20019;-60
2022/09/06 15:57:57;;;;;;;2.22;1.20;;;31.50;44.80;;;;;;9178141;19;20022;-59
2022/09/06 16:01:10;;;;;;;1.70;1.30;;;31.40;44.80;;;;;;9178095;19;20014;-63
2022/09/06 16:04:15;;;;;;;4.85;1.25;;;31.40;44.60;;;;;;9179130;19;20019;-60
2022/09/06 16:07:20;;;;;;;3.97;1.35;;;31.30;44.90;;;;;;9175714;19;20026;-64
2022/09/06 16:10:25;;;;;;;1.80;1.10;;;31.30;44.50;;;;;;9176738;19;20018;-64
2022/09/06 16:13:34;;;;;;;6.13;1.45;;;31.20;44.80;;;;;;9175336;19;20018;-67
2022/09/06 16:16:43;;;;;;;4.85;2.47;;;31.10;44.80;;;;;;9167840;19;20764;-64
2022/09/06 16:19:48;;;;;;;2.42;1.48;;;31.00;44.90;;;;;;9171736;19;20018;-63
2022/09/06 16:22:53;;;;;;;8.90;1.40;;;31.00;45.00;;;;;;9174506;19;20365;-63
2022/09/06 16:25:58;;;;;;;1.58;0.93;;;30.90;44.90;;;;;;9172792;19;20686;-64